Time;durP1;ratioP1;P1;durP2;ratioP2;P2;SDS_P1;SDS_P2;PMS_P1;PMS_P2;Temp;Humidity;BMP_temperature;BMP_pressure;BME280_temperature;BME280_humidity;BME280_pressure;Samples;Min_cycle;Max_cycle;Signal;HPM_P1;HPM_P2
2021/04/24 00:00:33;;;;;;;4.699999;2.8;;;;;;;2.33;42.61133;95819.81;;;;
2021/04/24 00:01:34;;;;;;;4.699999;2.8;;;;;;;2.33;42.61133;95819.81;;;;
2021/04/24 00:02:36;;;;;;;4.699999;2.8;;;;;;;2.33;42.61133;95819.81;;;;
2021/04/24 00:03:38;;;;;;;4.699999;2.8;;;;;;;2.33;42.61133;95819.81;;;;
2021/04/24 00:04:39;;;;;;;4.699999;2.8;;;;;;;2.33;42.61133;95819.81;;;;
2021/04/24 00:05:39;;;;;;;4.699999;2.8;;;;;;;2.33;42.61133;95819.81;;;;
2021/04/24 00:06:42;;;;;;;4.699999;2.8;;;;;;;2.33;42.61133;95819.81;;;;
2021/04/24 00:07:43;;;;;;;4.699999;2.8;;;;;;;2.33;42.61133;95819.81;;;;
2021/04/24 00:08:43;;;;;;;4.699999;2.8;;;;;;;2.33;42.61133;95819.81;;;;
2021/04/24 00:09:44;;;;;;;5.25;3;;;;;;;2.15;42.92285;95821.38;;;;
2021/04/24 00:10:45;;;;;;;5.25;3;;;;;;;2.15;42.92285;95821.38;;;;
2021/04/24 00:11:47;;;;;;;5.25;3;;;;;;;2.15;42.92285;95821.38;;;;
2021/04/24 00:12:48;;;;;;;5.25;3;;;;;;;2.15;42.92285;95821.38;;;;
2021/04/24 00:13:49;;;;;;;5.25;3;;;;;;;2.15;42.92285;95821.38;;;;
2021/04/24 00:14:51;;;;;;;5.25;3;;;;;;;2.15;42.92285;95821.38;;;;
2021/04/24 00:15:51;;;;;;;5.25;3;;;;;;;2.15;42.92285;95821.38;;;;
2021/04/24 00:16:52;;;;;;;5.25;3;;;;;;;2.15;42.92285;95821.38;;;;
2021/04/24 00:17:53;;;;;;;5.25;3;;;;;;;2.15;42.92285;95821.38;;;;
2021/04/24 00:18:53;;;;;;;5.25;3;;;;;;;2.15;42.92285;95821.38;;;;
2021/04/24 00:19:54;;;;;;;5.25;3;;;;;;;2.15;42.92285;95821.38;;;;
2021/04/24 00:20:54;;;;;;;4.45;2.85;;;;;;;2.03;43.13281;95819.67;;;;
2021/04/24 00:21:55;;;;;;;4.45;2.85;;;;;;;2.03;43.13281;95819.67;;;;
2021/04/24 00:22:55;;;;;;;4.45;2.85;;;;;;;2.03;43.13281;95819.67;;;;
2021/04/24 00:23:56;;;;;;;4.45;2.85;;;;;;;2.03;43.13281;95819.67;;;;
2021/04/24 00:24:57;;;;;;;4.45;2.85;;;;;;;2.03;43.13281;95819.67;;;;
2021/04/24 00:25:57;;;;;;;4.45;2.85;;;;;;;2.03;43.13281;95819.67;;;;
2021/04/24 00:26:58;;;;;;;4.45;2.85;;;;;;;2.03;43.13281;95819.67;;;;
2021/04/24 00:27:59;;;;;;;4.45;2.85;;;;;;;2.03;43.13281;95819.67;;;;
2021/04/24 00:29:00;;;;;;;4.45;2.85;;;;;;;2.03;43.13281;95819.67;;;;
2021/04/24 00:30:00;;;;;;;4.45;2.85;;;;;;;2.03;43.13281;95819.67;;;;
2021/04/24 00:31:01;;;;;;;4.95;3.15;;;;;;;1.9;43.40625;95817.55;;;;
2021/04/24 00:32:02;;;;;;;4.95;3.15;;;;;;;1.9;43.40625;95817.55;;;;
2021/04/24 00:33:03;;;;;;;4.95;3.15;;;;;;;1.9;43.40625;95817.55;;;;
2021/04/24 00:34:05;;;;;;;4.95;3.15;;;;;;;1.9;43.40625;95817.55;;;;
2021/04/24 00:35:05;;;;;;;4.95;3.15;;;;;;;1.9;43.40625;95817.55;;;;
2021/04/24 00:36:08;;;;;;;4.95;3.15;;;;;;;1.9;43.40625;95817.55;;;;
2021/04/24 00:37:09;;;;;;;4.95;3.15;;;;;;;1.9;43.40625;95817.55;;;;
2021/04/24 00:38:10;;;;;;;4.95;3.15;;;;;;;1.9;43.40625;95817.55;;;;
2021/04/24 00:39:10;;;;;;;4.95;3.15;;;;;;;1.9;43.40625;95817.55;;;;
2021/04/24 00:40:11;;;;;;;4.95;3.15;;;;;;;1.9;43.40625;95817.55;;;;
2021/04/24 00:41:14;;;;;;;4.95;3.15;;;;;;;1.9;43.40625;95817.55;;;;
2021/04/24 00:42:15;;;;;;;5.05;2.85;;;;;;;1.86;43.47559;95810.05;;;;
2021/04/24 00:43:16;;;;;;;5.05;2.85;;;;;;;1.86;43.47559;95810.05;;;;
2021/04/24 00:44:18;;;;;;;5.05;2.85;;;;;;;1.86;43.47559;95810.05;;;;
2021/04/24 00:45:18;;;;;;;5.05;2.85;;;;;;;1.86;43.47559;95810.05;;;;
2021/04/24 00:46:22;;;;;;;5.05;2.85;;;;;;;1.86;43.47559;95810.05;;;;
2021/04/24 00:47:22;;;;;;;5.05;2.85;;;;;;;1.86;43.47559;95810.05;;;;
2021/04/24 00:48:25;;;;;;;5.05;2.85;;;;;;;1.86;43.47559;95810.05;;;;
2021/04/24 00:49:25;;;;;;;5.05;2.85;;;;;;;1.86;43.47559;95810.05;;;;
2021/04/24 00:50:26;;;;;;;5.05;2.85;;;;;;;1.86;43.47559;95810.05;;;;
2021/04/24 00:51:29;;;;;;;5.05;2.85;;;;;;;1.86;43.47559;95810.05;;;;
2021/04/24 00:52:30;;;;;;;5.2;2.95;;;;;;;1.76;43.73926;95802.76;;;;
2021/04/24 00:53:30;;;;;;;5.2;2.95;;;;;;;1.76;43.73926;95802.76;;;;
2021/04/24 00:54:31;;;;;;;5.2;2.95;;;;;;;1.76;43.73926;95802.76;;;;
2021/04/24 00:55:32;;;;;;;5.2;2.95;;;;;;;1.76;43.73926;95802.76;;;;
2021/04/24 00:56:34;;;;;;;5.2;2.95;;;;;;;1.76;43.73926;95802.76;;;;
2021/04/24 00:57:35;;;;;;;5.2;2.95;;;;;;;1.76;43.73926;95802.76;;;;
2021/04/24 00:58:36;;;;;;;5.2;2.95;;;;;;;1.76;43.73926;95802.76;;;;
2021/04/24 00:59:37;;;;;;;5.2;2.95;;;;;;;1.76;43.73926;95802.76;;;;
2021/04/24 01:00:39;;;;;;;5.2;2.95;;;;;;;1.76;43.73926;95802.76;;;;
2021/04/24 01:01:40;;;;;;;5.2;2.95;;;;;;;1.76;43.73926;95802.76;;;;
2021/04/24 01:02:41;;;;;;;5.2;2.95;;;;;;;1.76;43.73926;95802.76;;;;
2021/04/24 01:03:42;;;;;;;5.3;2.95;;;;;;;1.62;44.01074;95786.58;;;;
2021/04/24 01:04:44;;;;;;;5.3;2.95;;;;;;;1.62;44.01074;95786.58;;;;
2021/04/24 01:05:45;;;;;;;5.3;2.95;;;;;;;1.62;44.01074;95786.58;;;;
2021/04/24 01:06:46;;;;;;;5.3;2.95;;;;;;;1.62;44.01074;95786.58;;;;
2021/04/24 01:07:47;;;;;;;5.3;2.95;;;;;;;1.62;44.01074;95786.58;;;;
2021/04/24 01:08:48;;;;;;;5.3;2.95;;;;;;;1.62;44.01074;95786.58;;;;
2021/04/24 01:09:48;;;;;;;5.3;2.95;;;;;;;1.62;44.01074;95786.58;;;;
2021/04/24 01:10:49;;;;;;;5.3;2.95;;;;;;;1.62;44.01074;95786.58;;;;
2021/04/24 01:11:50;;;;;;;5.3;2.95;;;;;;;1.62;44.01074;95786.58;;;;
2021/04/24 01:12:50;;;;;;;5.3;2.95;;;;;;;1.62;44.01074;95786.58;;;;
2021/04/24 01:13:51;;;;;;;4.75;3.25;;;;;;;1.48;44.20801;95764.14;;;;
2021/04/24 01:14:51;;;;;;;4.75;3.25;;;;;;;1.48;44.20801;95764.14;;;;
2021/04/24 01:15:52;;;;;;;4.75;3.25;;;;;;;1.48;44.20801;95764.14;;;;
2021/04/24 01:16:53;;;;;;;4.75;3.25;;;;;;;1.48;44.20801;95764.14;;;;
2021/04/24 01:17:53;;;;;;;4.75;3.25;;;;;;;1.48;44.20801;95764.14;;;;
2021/04/24 01:18:54;;;;;;;4.75;3.25;;;;;;;1.48;44.20801;95764.14;;;;
2021/04/24 01:19:55;;;;;;;4.75;3.25;;;;;;;1.48;44.20801;95764.14;;;;
2021/04/24 01:20:55;;;;;;;4.75;3.25;;;;;;;1.48;44.20801;95764.14;;;;
2021/04/24 01:21:57;;;;;;;4.75;3.25;;;;;;;1.48;44.20801;95764.14;;;;
2021/04/24 01:23:05;;;;;;;4.75;3.25;;;;;;;1.48;44.20801;95764.14;;;;
2021/04/24 01:24:07;;;;;;;4.75;3.25;;;;;;;1.48;44.20801;95764.14;;;;
2021/04/24 01:25:09;;;;;;;5.65;3.05;;;;;;;1.34;44.47852;95752.86;;;;
2021/04/24 01:26:13;;;;;;;5.65;3.05;;;;;;;1.34;44.47852;95752.86;;;;
2021/04/24 01:27:14;;;;;;;5.65;3.05;;;;;;;1.34;44.47852;95752.86;;;;
2021/04/24 01:28:15;;;;;;;5.65;3.05;;;;;;;1.34;44.47852;95752.86;;;;
2021/04/24 01:29:16;;;;;;;5.65;3.05;;;;;;;1.34;44.47852;95752.86;;;;
2021/04/24 01:30:16;;;;;;;5.65;3.05;;;;;;;1.34;44.47852;95752.86;;;;
2021/04/24 01:31:20;;;;;;;5.65;3.05;;;;;;;1.34;44.47852;95752.86;;;;
2021/04/24 01:32:20;;;;;;;5.65;3.05;;;;;;;1.34;44.47852;95752.86;;;;
2021/04/24 01:33:21;;;;;;;5.65;3.05;;;;;;;1.34;44.47852;95752.86;;;;
2021/04/24 01:34:23;;;;;;;5.65;3.05;;;;;;;1.34;44.47852;95752.86;;;;
2021/04/24 01:35:24;;;;;;;6.099999;3.05;;;;;;;1.21;44.70703;95759.66;;;;
2021/04/24 01:36:29;;;;;;;6.099999;3.05;;;;;;;1.21;44.70703;95759.66;;;;
2021/04/24 01:37:30;;;;;;;6.099999;3.05;;;;;;;1.21;44.70703;95759.66;;;;
2021/04/24 01:38:30;;;;;;;6.099999;3.05;;;;;;;1.21;44.70703;95759.66;;;;
2021/04/24 01:39:32;;;;;;;6.099999;3.05;;;;;;;1.21;44.70703;95759.66;;;;
2021/04/24 01:40:32;;;;;;;6.099999;3.05;;;;;;;1.21;44.70703;95759.66;;;;
2021/04/24 01:41:33;;;;;;;6.099999;3.05;;;;;;;1.21;44.70703;95759.66;;;;
2021/04/24 01:42:34;;;;;;;6.099999;3.05;;;;;;;1.21;44.70703;95759.66;;;;
2021/04/24 01:43:35;;;;;;;6.099999;3.05;;;;;;;1.21;44.70703;95759.66;;;;
2021/04/24 01:44:36;;;;;;;6.099999;3.05;;;;;;;1.21;44.70703;95759.66;;;;
2021/04/24 01:45:37;;;;;;;5.8;3.1;;;;;;;1.07;44.89355;95746.56;;;;
2021/04/24 01:46:38;;;;;;;5.8;3.1;;;;;;;1.07;44.89355;95746.56;;;;
2021/04/24 01:47:38;;;;;;;5.8;3.1;;;;;;;1.07;44.89355;95746.56;;;;
2021/04/24 01:48:41;;;;;;;5.8;3.1;;;;;;;1.07;44.89355;95746.56;;;;
2021/04/24 01:49:41;;;;;;;5.8;3.1;;;;;;;1.07;44.89355;95746.56;;;;
2021/04/24 01:50:42;;;;;;;5.8;3.1;;;;;;;1.07;44.89355;95746.56;;;;
2021/04/24 01:51:44;;;;;;;5.8;3.1;;;;;;;1.07;44.89355;95746.56;;;;
2021/04/24 01:52:45;;;;;;;5.8;3.1;;;;;;;1.07;44.89355;95746.56;;;;
2021/04/24 01:53:48;;;;;;;5.8;3.1;;;;;;;1.07;44.89355;95746.56;;;;
2021/04/24 01:54:49;;;;;;;5.8;3.1;;;;;;;1.07;44.89355;95746.56;;;;
2021/04/24 01:55:50;;;;;;;5.8;3.1;;;;;;;1.07;44.89355;95746.56;;;;
2021/04/24 01:56:51;;;;;;;6.249999;3.25;;;;;;;0.95;45.13477;95742.07;;;;
2021/04/24 01:57:54;;;;;;;6.249999;3.25;;;;;;;0.95;45.13477;95742.07;;;;
2021/04/24 01:58:57;;;;;;;6.249999;3.25;;;;;;;0.95;45.13477;95742.07;;;;
2021/04/24 01:59:57;;;;;;;6.249999;3.25;;;;;;;0.95;45.13477;95742.07;;;;
2021/04/24 02:00:58;;;;;;;6.249999;3.25;;;;;;;0.95;45.13477;95742.07;;;;
2021/04/24 02:02:03;;;;;;;6.249999;3.25;;;;;;;0.95;45.13477;95742.07;;;;
2021/04/24 02:03:04;;;;;;;6.249999;3.25;;;;;;;0.95;45.13477;95742.07;;;;
2021/04/24 02:04:08;;;;;;;6.249999;3.25;;;;;;;0.95;45.13477;95742.07;;;;
2021/04/24 02:05:09;;;;;;;6.249999;3.25;;;;;;;0.95;45.13477;95742.07;;;;
2021/04/24 02:06:12;;;;;;;6.249999;3.25;;;;;;;0.95;45.13477;95742.07;;;;
2021/04/24 02:07:13;;;;;;;5;3;;;;;;;0.82;45.30957;95737.83;;;;
2021/04/24 02:08:13;;;;;;;5;3;;;;;;;0.82;45.30957;95737.83;;;;
2021/04/24 02:09:16;;;;;;;5;3;;;;;;;0.82;45.30957;95737.83;;;;
2021/04/24 02:10:19;;;;;;;5;3;;;;;;;0.82;45.30957;95737.83;;;;
2021/04/24 02:11:20;;;;;;;5;3;;;;;;;0.82;45.30957;95737.83;;;;
2021/04/24 02:12:21;;;;;;;5;3;;;;;;;0.82;45.30957;95737.83;;;;
2021/04/24 02:13:22;;;;;;;5;3;;;;;;;0.82;45.30957;95737.83;;;;
2021/04/24 02:14:26;;;;;;;5;3;;;;;;;0.82;45.30957;95737.83;;;;
2021/04/24 02:15:27;;;;;;;5;3;;;;;;;0.82;45.30957;95737.83;;;;
2021/04/24 02:16:27;;;;;;;5;3;;;;;;;0.82;45.30957;95737.83;;;;
2021/04/24 02:17:28;;;;;;;5;3;;;;;;;0.82;45.30957;95737.83;;;;
2021/04/24 02:18:29;;;;;;;6.1;3.15;;;;;;;0.71;45.49805;95732.84;;;;
2021/04/24 02:19:29;;;;;;;6.1;3.15;;;;;;;0.71;45.49805;95732.84;;;;
2021/04/24 02:20:30;;;;;;;6.1;3.15;;;;;;;0.71;45.49805;95732.84;;;;
2021/04/24 02:21:31;;;;;;;6.1;3.15;;;;;;;0.71;45.49805;95732.84;;;;
2021/04/24 02:22:32;;;;;;;6.1;3.15;;;;;;;0.71;45.49805;95732.84;;;;
2021/04/24 02:23:32;;;;;;;6.1;3.15;;;;;;;0.71;45.49805;95732.84;;;;
2021/04/24 02:24:35;;;;;;;6.1;3.15;;;;;;;0.71;45.49805;95732.84;;;;
2021/04/24 02:25:40;;;;;;;6.1;3.15;;;;;;;0.71;45.49805;95732.84;;;;
2021/04/24 02:26:42;;;;;;;6.1;3.15;;;;;;;0.71;45.49805;95732.84;;;;
2021/04/24 02:27:42;;;;;;;6.1;3.15;;;;;;;0.71;45.49805;95732.84;;;;
2021/04/24 02:28:43;;;;;;;6.9;2.900001;;;;;;;0.62;45.7002;95735.57;;;;
2021/04/24 02:29:43;;;;;;;6.9;2.900001;;;;;;;0.62;45.7002;95735.57;;;;
2021/04/24 02:30:45;;;;;;;6.9;2.900001;;;;;;;0.62;45.7002;95735.57;;;;
2021/04/24 02:31:46;;;;;;;6.9;2.900001;;;;;;;0.62;45.7002;95735.57;;;;
2021/04/24 02:32:46;;;;;;;6.9;2.900001;;;;;;;0.62;45.7002;95735.57;;;;
2021/04/24 02:33:48;;;;;;;6.9;2.900001;;;;;;;0.62;45.7002;95735.57;;;;
2021/04/24 02:34:48;;;;;;;6.9;2.900001;;;;;;;0.62;45.7002;95735.57;;;;
2021/04/24 02:35:50;;;;;;;6.9;2.900001;;;;;;;0.62;45.7002;95735.57;;;;
2021/04/24 02:36:52;;;;;;;6.9;2.900001;;;;;;;0.62;45.7002;95735.57;;;;
2021/04/24 02:37:52;;;;;;;6.9;2.900001;;;;;;;0.62;45.7002;95735.57;;;;
2021/04/24 02:38:53;;;;;;;5.849999;3.15;;;;;;;0.54;45.86035;95722.68;;;;
2021/04/24 02:39:54;;;;;;;5.849999;3.15;;;;;;;0.54;45.86035;95722.68;;;;
2021/04/24 02:40:55;;;;;;;5.849999;3.15;;;;;;;0.54;45.86035;95722.68;;;;
2021/04/24 02:41:57;;;;;;;5.849999;3.15;;;;;;;0.54;45.86035;95722.68;;;;
2021/04/24 02:42:59;;;;;;;5.849999;3.15;;;;;;;0.54;45.86035;95722.68;;;;
2021/04/24 02:43:59;;;;;;;5.849999;3.15;;;;;;;0.54;45.86035;95722.68;;;;
2021/04/24 02:45:05;;;;;;;5.849999;3.15;;;;;;;0.54;45.86035;95722.68;;;;
2021/04/24 02:46:09;;;;;;;5.849999;3.15;;;;;;;0.54;45.86035;95722.68;;;;
2021/04/24 02:47:10;;;;;;;5.849999;3.15;;;;;;;0.54;45.86035;95722.68;;;;
2021/04/24 02:48:11;;;;;;;5.849999;3.15;;;;;;;0.54;45.86035;95722.68;;;;
2021/04/24 02:49:12;;;;;;;5.849999;3.15;;;;;;;0.54;45.86035;95722.68;;;;
2021/04/24 02:50:13;;;;;;;8.399999;3.15;;;;;;;0.47;46.30664;95711.89;;;;
2021/04/24 02:51:17;;;;;;;8.399999;3.15;;;;;;;0.47;46.30664;95711.89;;;;
2021/04/24 02:52:17;;;;;;;8.399999;3.15;;;;;;;0.47;46.30664;95711.89;;;;
2021/04/24 02:53:18;;;;;;;8.399999;3.15;;;;;;;0.47;46.30664;95711.89;;;;
2021/04/24 02:54:19;;;;;;;8.399999;3.15;;;;;;;0.47;46.30664;95711.89;;;;
2021/04/24 02:55:20;;;;;;;8.399999;3.15;;;;;;;0.47;46.30664;95711.89;;;;
2021/04/24 02:56:21;;;;;;;8.399999;3.15;;;;;;;0.47;46.30664;95711.89;;;;
2021/04/24 02:57:21;;;;;;;8.399999;3.15;;;;;;;0.47;46.30664;95711.89;;;;
2021/04/24 02:58:22;;;;;;;8.399999;3.15;;;;;;;0.47;46.30664;95711.89;;;;
2021/04/24 02:59:22;;;;;;;8.399999;3.15;;;;;;;0.47;46.30664;95711.89;;;;
2021/04/24 03:00:23;;;;;;;7.200001;3.25;;;;;;;0.42;46.33301;95712.89;;;;
2021/04/24 03:01:26;;;;;;;7.200001;3.25;;;;;;;0.42;46.33301;95712.89;;;;
2021/04/24 03:02:26;;;;;;;7.200001;3.25;;;;;;;0.42;46.33301;95712.89;;;;
2021/04/24 03:03:27;;;;;;;7.200001;3.25;;;;;;;0.42;46.33301;95712.89;;;;
2021/04/24 03:04:27;;;;;;;7.200001;3.25;;;;;;;0.42;46.33301;95712.89;;;;
2021/04/24 03:05:28;;;;;;;7.200001;3.25;;;;;;;0.42;46.33301;95712.89;;;;
2021/04/24 03:06:29;;;;;;;7.200001;3.25;;;;;;;0.42;46.33301;95712.89;;;;
2021/04/24 03:07:29;;;;;;;7.200001;3.25;;;;;;;0.42;46.33301;95712.89;;;;
2021/04/24 03:08:30;;;;;;;7.200001;3.25;;;;;;;0.42;46.33301;95712.89;;;;
2021/04/24 03:09:30;;;;;;;7.200001;3.25;;;;;;;0.42;46.33301;95712.89;;;;
2021/04/24 03:10:31;;;;;;;7.200001;3.25;;;;;;;0.42;46.33301;95712.89;;;;
2021/04/24 03:11:32;;;;;;;5.35;3.35;;;;;;;0.27;46.55762;95705.74;;;;
2021/04/24 03:12:34;;;;;;;5.35;3.35;;;;;;;0.27;46.55762;95705.74;;;;
2021/04/24 03:13:35;;;;;;;5.35;3.35;;;;;;;0.27;46.55762;95705.74;;;;
2021/04/24 03:14:35;;;;;;;5.35;3.35;;;;;;;0.27;46.55762;95705.74;;;;
2021/04/24 03:15:36;;;;;;;5.35;3.35;;;;;;;0.27;46.55762;95705.74;;;;
2021/04/24 03:16:37;;;;;;;5.35;3.35;;;;;;;0.27;46.55762;95705.74;;;;
2021/04/24 03:17:38;;;;;;;5.35;3.35;;;;;;;0.27;46.55762;95705.74;;;;
2021/04/24 03:18:39;;;;;;;5.35;3.35;;;;;;;0.27;46.55762;95705.74;;;;
2021/04/24 03:19:39;;;;;;;5.35;3.35;;;;;;;0.27;46.55762;95705.74;;;;
2021/04/24 03:20:40;;;;;;;5.35;3.35;;;;;;;0.27;46.55762;95705.74;;;;
2021/04/24 03:21:40;;;;;;;5.85;3.55;;;;;;;0.11;46.82422;95710.49;;;;
2021/04/24 03:22:41;;;;;;;5.85;3.55;;;;;;;0.11;46.82422;95710.49;;;;
2021/04/24 03:23:42;;;;;;;5.85;3.55;;;;;;;0.11;46.82422;95710.49;;;;
2021/04/24 03:24:42;;;;;;;5.85;3.55;;;;;;;0.11;46.82422;95710.49;;;;
2021/04/24 03:25:43;;;;;;;5.85;3.55;;;;;;;0.11;46.82422;95710.49;;;;
2021/04/24 03:26:44;;;;;;;5.85;3.55;;;;;;;0.11;46.82422;95710.49;;;;
2021/04/24 03:27:45;;;;;;;5.85;3.55;;;;;;;0.11;46.82422;95710.49;;;;
2021/04/24 03:28:46;;;;;;;5.85;3.55;;;;;;;0.11;46.82422;95710.49;;;;
2021/04/24 03:29:46;;;;;;;5.85;3.55;;;;;;;0.11;46.82422;95710.49;;;;
2021/04/24 03:30:47;;;;;;;5.85;3.55;;;;;;;0.11;46.82422;95710.49;;;;
2021/04/24 03:31:47;;;;;;;5.85;3.55;;;;;;;0.11;46.82422;95710.49;;;;
2021/04/24 03:32:48;;;;;;;6.75;3.2;;;;;;;0.08;46.99121;95712.15;;;;
2021/04/24 03:33:48;;;;;;;6.75;3.2;;;;;;;0.08;46.99121;95712.15;;;;
2021/04/24 03:34:49;;;;;;;6.75;3.2;;;;;;;0.08;46.99121;95712.15;;;;
2021/04/24 03:35:49;;;;;;;6.75;3.2;;;;;;;0.08;46.99121;95712.15;;;;
2021/04/24 03:36:50;;;;;;;6.75;3.2;;;;;;;0.08;46.99121;95712.15;;;;
2021/04/24 03:37:50;;;;;;;6.75;3.2;;;;;;;0.08;46.99121;95712.15;;;;
2021/04/24 03:38:51;;;;;;;6.75;3.2;;;;;;;0.08;46.99121;95712.15;;;;
2021/04/24 03:39:52;;;;;;;6.75;3.2;;;;;;;0.08;46.99121;95712.15;;;;
2021/04/24 03:40:52;;;;;;;6.75;3.2;;;;;;;0.08;46.99121;95712.15;;;;
2021/04/24 03:41:53;;;;;;;6.75;3.2;;;;;;;0.08;46.99121;95712.15;;;;
2021/04/24 03:42:54;;;;;;;6.549999;3.25;;;;;;;-0.03;47.0625;95717.33;;;;
2021/04/24 03:43:54;;;;;;;6.549999;3.25;;;;;;;-0.03;47.0625;95717.33;;;;
2021/04/24 03:44:55;;;;;;;6.549999;3.25;;;;;;;-0.03;47.0625;95717.33;;;;
2021/04/24 03:45:55;;;;;;;6.549999;3.25;;;;;;;-0.03;47.0625;95717.33;;;;
2021/04/24 03:46:56;;;;;;;6.549999;3.25;;;;;;;-0.03;47.0625;95717.33;;;;
2021/04/24 03:47:56;;;;;;;6.549999;3.25;;;;;;;-0.03;47.0625;95717.33;;;;
2021/04/24 03:48:57;;;;;;;6.549999;3.25;;;;;;;-0.03;47.0625;95717.33;;;;
2021/04/24 03:49:58;;;;;;;6.549999;3.25;;;;;;;-0.03;47.0625;95717.33;;;;
2021/04/24 03:50:58;;;;;;;6.549999;3.25;;;;;;;-0.03;47.0625;95717.33;;;;
2021/04/24 03:51:59;;;;;;;6.549999;3.25;;;;;;;-0.03;47.0625;95717.33;;;;
2021/04/24 03:52:59;;;;;;;6.549999;3.25;;;;;;;-0.03;47.0625;95717.33;;;;
2021/04/24 03:54:00;;;;;;;6.3;3.75;;;;;;;-0.14;47.37598;95713.15;;;;
2021/04/24 03:55:01;;;;;;;6.3;3.75;;;;;;;-0.14;47.37598;95713.15;;;;
2021/04/24 03:56:01;;;;;;;6.3;3.75;;;;;;;-0.14;47.37598;95713.15;;;;
2021/04/24 03:57:02;;;;;;;6.3;3.75;;;;;;;-0.14;47.37598;95713.15;;;;
2021/04/24 03:58:03;;;;;;;6.3;3.75;;;;;;;-0.14;47.37598;95713.15;;;;
2021/04/24 03:59:03;;;;;;;6.3;3.75;;;;;;;-0.14;47.37598;95713.15;;;;
2021/04/24 04:00:04;;;;;;;6.3;3.75;;;;;;;-0.14;47.37598;95713.15;;;;
2021/04/24 04:01:06;;;;;;;6.3;3.75;;;;;;;-0.14;47.37598;95713.15;;;;
2021/04/24 04:02:07;;;;;;;6.3;3.75;;;;;;;-0.14;47.37598;95713.15;;;;
2021/04/24 04:03:07;;;;;;;6.3;3.75;;;;;;;-0.14;47.37598;95713.15;;;;
2021/04/24 04:04:09;;;;;;;6.3;3.75;;;;;;;-0.14;47.37598;95713.15;;;;
2021/04/24 04:05:10;;;;;;;7.400001;4.2;;;;;;;-0.22;47.55664;95715.79;;;;
2021/04/24 04:06:12;;;;;;;7.400001;4.2;;;;;;;-0.22;47.55664;95715.79;;;;
2021/04/24 04:07:13;;;;;;;7.400001;4.2;;;;;;;-0.22;47.55664;95715.79;;;;
2021/04/24 04:08:13;;;;;;;7.400001;4.2;;;;;;;-0.22;47.55664;95715.79;;;;
2021/04/24 04:09:15;;;;;;;7.400001;4.2;;;;;;;-0.22;47.55664;95715.79;;;;
2021/04/24 04:10:15;;;;;;;7.400001;4.2;;;;;;;-0.22;47.55664;95715.79;;;;
2021/04/24 04:11:18;;;;;;;7.400001;4.2;;;;;;;-0.22;47.55664;95715.79;;;;
2021/04/24 04:12:18;;;;;;;7.400001;4.2;;;;;;;-0.22;47.55664;95715.79;;;;
2021/04/24 04:13:19;;;;;;;7.400001;4.2;;;;;;;-0.22;47.55664;95715.79;;;;
2021/04/24 04:14:19;;;;;;;7.400001;4.2;;;;;;;-0.22;47.55664;95715.79;;;;
2021/04/24 04:15:20;;;;;;;8.099999;3.8;;;;;;;-0.29;48.02148;95719.65;;;;
2021/04/24 04:16:22;;;;;;;8.099999;3.8;;;;;;;-0.29;48.02148;95719.65;;;;
2021/04/24 04:17:23;;;;;;;8.099999;3.8;;;;;;;-0.29;48.02148;95719.65;;;;
2021/04/24 04:18:24;;;;;;;8.099999;3.8;;;;;;;-0.29;48.02148;95719.65;;;;
2021/04/24 04:19:25;;;;;;;8.099999;3.8;;;;;;;-0.29;48.02148;95719.65;;;;
2021/04/24 04:20:25;;;;;;;8.099999;3.8;;;;;;;-0.29;48.02148;95719.65;;;;
2021/04/24 04:21:26;;;;;;;8.099999;3.8;;;;;;;-0.29;48.02148;95719.65;;;;
2021/04/24 04:22:26;;;;;;;8.099999;3.8;;;;;;;-0.29;48.02148;95719.65;;;;
2021/04/24 04:23:27;;;;;;;8.099999;3.8;;;;;;;-0.29;48.02148;95719.65;;;;
2021/04/24 04:24:28;;;;;;;8.099999;3.8;;;;;;;-0.29;48.02148;95719.65;;;;
2021/04/24 04:25:28;;;;;;;8.099999;3.8;;;;;;;-0.29;48.02148;95719.65;;;;
2021/04/24 04:26:29;;;;;;;6.65;3.25;;;;;;;-0.28;48.0127;95709.84;;;;
2021/04/24 04:27:29;;;;;;;6.65;3.25;;;;;;;-0.28;48.0127;95709.84;;;;
2021/04/24 04:28:30;;;;;;;6.65;3.25;;;;;;;-0.28;48.0127;95709.84;;;;
2021/04/24 04:29:31;;;;;;;6.65;3.25;;;;;;;-0.28;48.0127;95709.84;;;;
2021/04/24 04:30:32;;;;;;;6.65;3.25;;;;;;;-0.28;48.0127;95709.84;;;;
2021/04/24 04:31:33;;;;;;;6.65;3.25;;;;;;;-0.28;48.0127;95709.84;;;;
2021/04/24 04:32:34;;;;;;;6.65;3.25;;;;;;;-0.28;48.0127;95709.84;;;;
2021/04/24 04:33:34;;;;;;;6.65;3.25;;;;;;;-0.28;48.0127;95709.84;;;;
2021/04/24 04:34:35;;;;;;;6.65;3.25;;;;;;;-0.28;48.0127;95709.84;;;;
2021/04/24 04:35:35;;;;;;;6.65;3.25;;;;;;;-0.28;48.0127;95709.84;;;;
2021/04/24 04:36:38;;;;;;;7.2;3.6;;;;;;;-0.2;48.06348;95714.72;;;;
2021/04/24 04:37:39;;;;;;;7.2;3.6;;;;;;;-0.2;48.06348;95714.72;;;;
2021/04/24 04:38:40;;;;;;;7.2;3.6;;;;;;;-0.2;48.06348;95714.72;;;;
2021/04/24 04:39:40;;;;;;;7.2;3.6;;;;;;;-0.2;48.06348;95714.72;;;;
2021/04/24 04:40:41;;;;;;;7.2;3.6;;;;;;;-0.2;48.06348;95714.72;;;;
2021/04/24 04:41:44;;;;;;;7.2;3.6;;;;;;;-0.2;48.06348;95714.72;;;;
2021/04/24 04:42:45;;;;;;;7.2;3.6;;;;;;;-0.2;48.06348;95714.72;;;;
2021/04/24 04:43:46;;;;;;;7.2;3.6;;;;;;;-0.2;48.06348;95714.72;;;;
2021/04/24 04:44:46;;;;;;;7.2;3.6;;;;;;;-0.2;48.06348;95714.72;;;;
2021/04/24 04:45:47;;;;;;;7.2;3.6;;;;;;;-0.2;48.06348;95714.72;;;;
2021/04/24 04:46:47;;;;;;;7.2;3.6;;;;;;;-0.2;48.06348;95714.72;;;;
2021/04/24 04:47:48;;;;;;;8.600001;3.7;;;;;;;-0.08;48.09766;95733.81;;;;
2021/04/24 04:48:49;;;;;;;8.600001;3.7;;;;;;;-0.08;48.09766;95733.81;;;;
2021/04/24 04:49:49;;;;;;;8.600001;3.7;;;;;;;-0.08;48.09766;95733.81;;;;
2021/04/24 04:50:50;;;;;;;8.600001;3.7;;;;;;;-0.08;48.09766;95733.81;;;;
2021/04/24 04:51:51;;;;;;;8.600001;3.7;;;;;;;-0.08;48.09766;95733.81;;;;
2021/04/24 04:52:51;;;;;;;8.600001;3.7;;;;;;;-0.08;48.09766;95733.81;;;;
2021/04/24 04:53:52;;;;;;;8.600001;3.7;;;;;;;-0.08;48.09766;95733.81;;;;
2021/04/24 04:54:52;;;;;;;8.600001;3.7;;;;;;;-0.08;48.09766;95733.81;;;;
2021/04/24 04:55:53;;;;;;;8.600001;3.7;;;;;;;-0.08;48.09766;95733.81;;;;
2021/04/24 04:56:53;;;;;;;8.600001;3.7;;;;;;;-0.08;48.09766;95733.81;;;;
2021/04/24 04:57:54;;;;;;;5.400001;3.35;;;;;;;0.04;48.31152;95727.63;;;;
2021/04/24 04:58:55;;;;;;;5.400001;3.35;;;;;;;0.04;48.31152;95727.63;;;;
2021/04/24 04:59:56;;;;;;;5.400001;3.35;;;;;;;0.04;48.31152;95727.63;;;;
2021/04/24 05:00:56;;;;;;;5.400001;3.35;;;;;;;0.04;48.31152;95727.63;;;;
2021/04/24 05:01:57;;;;;;;5.400001;3.35;;;;;;;0.04;48.31152;95727.63;;;;
2021/04/24 05:02:58;;;;;;;5.400001;3.35;;;;;;;0.04;48.31152;95727.63;;;;
2021/04/24 05:03:59;;;;;;;5.400001;3.35;;;;;;;0.04;48.31152;95727.63;;;;
2021/04/24 05:04:59;;;;;;;5.400001;3.35;;;;;;;0.04;48.31152;95727.63;;;;
2021/04/24 05:06:00;;;;;;;5.400001;3.35;;;;;;;0.04;48.31152;95727.63;;;;
2021/04/24 05:07:01;;;;;;;5.400001;3.35;;;;;;;0.04;48.31152;95727.63;;;;
2021/04/24 05:08:02;;;;;;;5.400001;3.35;;;;;;;0.04;48.31152;95727.63;;;;
2021/04/24 05:09:03;;;;;;;7.400001;3.3;;;;;;;0.27;48.47559;95738.4;;;;
2021/04/24 05:10:04;;;;;;;7.400001;3.3;;;;;;;0.27;48.47559;95738.4;;;;
2021/04/24 05:11:06;;;;;;;7.400001;3.3;;;;;;;0.27;48.47559;95738.4;;;;
2021/04/24 05:12:07;;;;;;;7.400001;3.3;;;;;;;0.27;48.47559;95738.4;;;;
2021/04/24 05:13:08;;;;;;;7.400001;3.3;;;;;;;0.27;48.47559;95738.4;;;;
2021/04/24 05:14:09;;;;;;;7.400001;3.3;;;;;;;0.27;48.47559;95738.4;;;;
2021/04/24 05:15:09;;;;;;;7.400001;3.3;;;;;;;0.27;48.47559;95738.4;;;;
2021/04/24 05:16:11;;;;;;;7.400001;3.3;;;;;;;0.27;48.47559;95738.4;;;;
2021/04/24 05:17:12;;;;;;;7.400001;3.3;;;;;;;0.27;48.47559;95738.4;;;;
2021/04/24 05:18:12;;;;;;;7.400001;3.3;;;;;;;0.27;48.47559;95738.4;;;;
2021/04/24 05:19:13;;;;;;;5.6;3.35;;;;;;;0.66;48.40332;95747.96;;;;
2021/04/24 05:20:14;;;;;;;5.6;3.35;;;;;;;0.66;48.40332;95747.96;;;;
2021/04/24 05:21:16;;;;;;;5.6;3.35;;;;;;;0.66;48.40332;95747.96;;;;
2021/04/24 05:22:16;;;;;;;5.6;3.35;;;;;;;0.66;48.40332;95747.96;;;;
2021/04/24 05:23:17;;;;;;;5.6;3.35;;;;;;;0.66;48.40332;95747.96;;;;
2021/04/24 05:24:18;;;;;;;5.6;3.35;;;;;;;0.66;48.40332;95747.96;;;;
2021/04/24 05:25:19;;;;;;;5.6;3.35;;;;;;;0.66;48.40332;95747.96;;;;
2021/04/24 05:26:19;;;;;;;5.6;3.35;;;;;;;0.66;48.40332;95747.96;;;;
2021/04/24 05:27:20;;;;;;;5.6;3.35;;;;;;;0.66;48.40332;95747.96;;;;
2021/04/24 05:28:20;;;;;;;5.6;3.35;;;;;;;0.66;48.40332;95747.96;;;;
2021/04/24 05:29:21;;;;;;;5.6;3.35;;;;;;;0.66;48.40332;95747.96;;;;
2021/04/24 05:30:21;;;;;;;6;3.65;;;;;;;1.17;48.31348;95754.27;;;;
2021/04/24 05:31:22;;;;;;;6;3.65;;;;;;;1.17;48.31348;95754.27;;;;
2021/04/24 05:32:23;;;;;;;6;3.65;;;;;;;1.17;48.31348;95754.27;;;;
2021/04/24 05:33:24;;;;;;;6;3.65;;;;;;;1.17;48.31348;95754.27;;;;
2021/04/24 05:34:24;;;;;;;6;3.65;;;;;;;1.17;48.31348;95754.27;;;;
2021/04/24 05:35:25;;;;;;;6;3.65;;;;;;;1.17;48.31348;95754.27;;;;
2021/04/24 05:36:26;;;;;;;6;3.65;;;;;;;1.17;48.31348;95754.27;;;;
2021/04/24 05:37:28;;;;;;;6;3.65;;;;;;;1.17;48.31348;95754.27;;;;
2021/04/24 05:38:28;;;;;;;6;3.65;;;;;;;1.17;48.31348;95754.27;;;;
2021/04/24 05:39:28;;;;;;;6;3.65;;;;;;;1.17;48.31348;95754.27;;;;
2021/04/24 05:40:29;;;;;;;7.599999;3.65;;;;;;;1.84;48.08301;95766.3;;;;
2021/04/24 05:41:30;;;;;;;7.599999;3.65;;;;;;;1.84;48.08301;95766.3;;;;
2021/04/24 05:42:30;;;;;;;7.599999;3.65;;;;;;;1.84;48.08301;95766.3;;;;
2021/04/24 05:43:31;;;;;;;7.599999;3.65;;;;;;;1.84;48.08301;95766.3;;;;
2021/04/24 05:44:32;;;;;;;7.599999;3.65;;;;;;;1.84;48.08301;95766.3;;;;
2021/04/24 05:45:32;;;;;;;7.599999;3.65;;;;;;;1.84;48.08301;95766.3;;;;